Time;durP1;ratioP1;P1;durP2;ratioP2;P2;SDS_P1;SDS_P2;PMS_P1;PMS_P2;Temp;Humidity;BMP_temperature;BMP_pressure;BME280_temperature;BME280_humidity;BME280_pressure;Samples;Min_cycle;Max_cycle;Signal;HPM_P1;HPM_P2
2023/04/07 00:02:04;;;;;;;0.40;0.40;;;;;;;7.91;58.31;96650.84;4988241;28;20081;-59
2023/04/07 00:04:31;;;;;;;0.40;0.40;;;;;;;7.95;56.68;96654.50;4987531;28;20102;-60
2023/04/07 00:06:58;;;;;;;0.38;0.38;;;;;;;7.83;57.11;96636.13;4988162;28;20086;-60
2023/04/07 00:09:24;;;;;;;0.43;0.43;;;;;;;7.87;56.42;96658.25;4988060;28;20129;-60
2023/04/07 00:11:51;;;;;;;0.40;0.40;;;;;;;7.62;55.52;96658.53;4988167;28;20096;-60
2023/04/07 00:14:18;;;;;;;0.40;0.40;;;;;;;7.74;55.70;96657.59;4986545;28;20556;-59
2023/04/07 00:16:44;;;;;;;0.40;0.40;;;;;;;7.32;57.15;96576.75;4988195;28;20090;-60
2023/04/07 00:19:11;;;;;;;0.40;0.40;;;;;;;7.86;58.31;96653.88;4968466;28;20125;-60
2023/04/07 00:21:38;;;;;;;0.30;0.30;;;;;;;7.88;58.94;96648.81;4968404;28;20093;-60
2023/04/07 00:24:04;;;;;;;0.40;0.40;;;;;;;7.84;59.09;96647.97;4968027;28;20059;-60
2023/04/07 00:26:31;;;;;;;0.40;0.40;;;;;;;7.83;58.79;96652.66;4966424;28;20086;-60
2023/04/07 00:28:58;;;;;;;0.40;0.40;;;;;;;7.49;59.73;96579.09;4966753;28;20061;-59
2023/04/07 00:31:25;;;;;;;0.35;0.35;;;;;;;7.50;58.40;96588.97;4967958;28;20568;-60
2023/04/07 00:33:52;;;;;;;0.40;0.40;;;;;;;7.85;59.00;96641.28;4968085;28;20054;-59
2023/04/07 00:36:19;;;;;;;0.40;0.40;;;;;;;7.48;57.98;96585.75;4967614;28;20112;-60
2023/04/07 00:38:45;;;;;;;0.40;0.40;;;;;;;7.89;58.22;96633.88;4966525;28;20050;-61
2023/04/07 00:41:12;;;;;;;0.40;0.40;;;;;;;7.65;58.87;96591.66;4967891;28;20054;-59
2023/04/07 00:43:39;;;;;;;0.40;0.40;;;;;;;8.04;59.12;96635.75;4968189;28;20086;-60
2023/04/07 00:46:06;;;;;;;0.40;0.40;;;;;;;7.93;59.83;96640.25;4967225;28;20054;-61
2023/04/07 00:48:33;;;;;;;0.40;0.40;;;;;;;7.88;59.46;96630.31;4967178;28;20559;-60
2023/04/07 00:50:59;;;;;;;0.40;0.40;;;;;;;7.81;60.09;96632.16;4967897;28;20054;-59
2023/04/07 00:53:26;;;;;;;0.40;0.40;;;;;;;7.98;60.28;96653.75;4967741;28;20093;-61
2023/04/07 00:55:53;;;;;;;0.40;0.40;;;;;;;7.89;59.34;96655.94;4967337;28;20047;-59
2023/04/07 00:58:20;;;;;;;0.40;0.40;;;;;;;7.83;59.26;96647.16;4967316;28;20510;-60
2023/04/07 01:01:03;;;;;;;0.40;0.40;;;;;;;7.81;60.99;96648.69;4965885;28;20505;-60
2023/04/07 01:03:36;;;;;;;0.40;0.40;;;;;;;7.48;60.75;96592.06;4965812;28;20066;-60
2023/04/07 01:06:06;;;;;;;0.38;0.38;;;;;;;7.64;60.93;96623.13;4967446;28;20055;-59
2023/04/07 01:08:50;;;;;;;0.40;0.40;;;;;;;7.78;60.83;96639.16;4967452;28;20043;-60
2023/04/07 01:11:17;;;;;;;0.35;0.35;;;;;;;7.67;60.45;96633.44;4965890;28;20353;-61
2023/04/07 01:13:52;;;;;;;0.40;0.40;;;;;;;7.07;61.31;96575.41;4965890;28;20054;-59
2023/04/07 01:16:26;;;;;;;0.40;0.40;;;;;;;7.46;62.16;96623.91;4967139;28;20138;-59
2023/04/07 01:18:56;;;;;;;0.40;0.40;;;;;;;7.42;62.62;96620.28;4984337;28;20050;-59
2023/04/07 01:21:27;;;;;;;0.40;0.40;;;;;;;6.86;62.62;96537.16;4986738;28;20058;-59
2023/04/07 01:24:06;;;;;;;0.40;0.40;;;;;;;7.35;63.92;96645.69;4986663;28;20077;-61
2023/04/07 01:26:33;;;;;;;0.38;0.38;;;;;;;7.23;63.50;96607.28;4986644;28;20062;-59
2023/04/07 01:29:13;;;;;;;0.40;0.40;;;;;;;7.39;62.05;96632.81;4985394;28;20481;-60
2023/04/07 01:31:41;;;;;;;0.40;0.40;;;;;;;6.12;61.35;96441.91;4984600;28;20157;-58
2023/04/07 01:34:13;;;;;;;0.40;0.40;;;;;;;6.83;61.59;96551.66;4984554;28;20046;-59
2023/04/07 01:36:41;;;;;;;0.40;0.40;;;;;;;7.26;62.93;96628.59;4984550;28;20479;-61
2023/04/07 01:39:08;;;;;;;0.40;0.40;;;;;;;7.34;62.80;96624.84;4984481;28;20713;-59
2023/04/07 01:41:37;;;;;;;0.40;0.40;;;;;;;7.37;61.75;96632.38;4985760;28;20156;-59
2023/04/07 01:44:06;;;;;;;0.40;0.40;;;;;;;6.73;61.42;96560.47;4984078;28;20052;-59
2023/04/07 01:46:33;;;;;;;0.40;0.40;;;;;;;7.28;61.50;96630.97;4982906;28;20062;-60
2023/04/07 01:49:01;;;;;;;0.40;0.40;;;;;;;7.34;61.34;96633.09;4984407;28;20405;-60
2023/04/07 01:51:29;;;;;;;0.40;0.40;;;;;;;6.70;61.33;96527.38;4983764;28;20135;-60
2023/04/07 01:53:57;;;;;;;0.30;0.30;;;;;;;7.42;59.43;96637.63;4982692;28;20082;-61
2023/04/07 01:56:24;;;;;;;0.40;0.40;;;;;;;7.53;58.21;96633.13;4984055;28;20077;-59
2023/04/07 01:58:50;;;;;;;0.40;0.40;;;;;;;7.44;56.66;96635.31;4985391;28;20403;-61
2023/04/07 02:01:17;;;;;;;0.40;0.40;;;;;;;7.46;57.95;96630.22;4985390;28;20137;-59
2023/04/07 02:03:55;;;;;;;0.40;0.40;;;;;;;7.33;57.80;96634.25;4984133;28;20128;-59
2023/04/07 02:06:28;;;;;;;0.40;0.40;;;;;;;7.28;58.77;96630.97;4985380;28;20112;-60
2023/04/07 02:08:59;;;;;;;0.30;0.30;;;;;;;7.15;59.96;96632.25;4985594;28;20141;-60
2023/04/07 02:11:28;;;;;;;0.40;0.40;;;;;;;7.18;59.93;96615.81;4985670;28;20448;-59
2023/04/07 02:13:56;;;;;;;0.40;0.40;;;;;;;7.35;60.45;96637.44;4984148;28;20082;-59
2023/04/07 02:16:24;;;;;;;0.40;0.40;;;;;;;7.35;59.44;96631.16;4983938;28;20116;-59
2023/04/07 02:18:52;;;;;;;0.40;0.40;;;;;;;6.70;59.47;96524.63;4985385;28;20082;-59
2023/04/07 02:21:20;;;;;;;0.40;0.40;;;;;;;7.28;59.14;96612.50;4985010;28;20050;-59
2023/04/07 02:23:46;;;;;;;0.40;0.40;;;;;;;7.49;59.17;96631.47;4984088;28;20334;-59
2023/04/07 02:26:13;;;;;;;0.40;0.40;;;;;;;7.46;58.93;96632.97;4983922;28;20085;-59
2023/04/07 02:28:40;;;;;;;0.32;0.32;;;;;;;7.49;60.11;96632.25;4985175;28;20482;-61
2023/04/07 02:31:06;;;;;;;0.40;0.40;;;;;;;7.32;59.00;96626.34;4983828;28;20062;-61
2023/04/07 02:33:33;;;;;;;0.40;0.40;;;;;;;7.25;59.35;96632.50;4984979;28;20058;-61
2023/04/07 02:35:59;;;;;;;0.30;0.30;;;;;;;7.41;59.45;96624.97;4984954;28;20472;-60
2023/04/07 02:38:26;;;;;;;0.40;0.40;;;;;;;7.35;59.62;96636.66;4985552;28;20050;-61
2023/04/07 02:40:53;;;;;;;0.30;0.30;;;;;;;7.36;58.48;96644.56;4985090;28;20132;-60
2023/04/07 02:43:20;;;;;;;0.40;0.40;;;;;;;7.29;58.12;96638.88;4985249;28;20129;-61
2023/04/07 02:45:47;;;;;;;0.40;0.40;;;;;;;6.98;58.77;96594.88;4984886;28;20445;-60
2023/04/07 02:48:13;;;;;;;0.30;0.30;;;;;;;7.27;58.56;96646.69;4985010;28;20046;-61
2023/04/07 02:50:40;;;;;;;0.40;0.40;;;;;;;7.32;58.03;96643.66;4985106;28;20429;-60
2023/04/07 02:53:07;;;;;;;0.40;0.40;;;;;;;7.38;59.22;96652.47;4984658;28;20169;-60
2023/04/07 02:55:34;;;;;;;0.40;0.40;;;;;;;7.25;59.75;96626.19;4983403;28;20050;-61
2023/04/07 02:58:00;;;;;;;0.40;0.40;;;;;;;7.37;60.19;96653.59;4984758;28;20145;-60
2023/04/07 03:00:27;;;;;;;0.43;0.43;;;;;;;7.32;59.89;96651.13;4984710;28;20109;-60
2023/04/07 03:02:54;;;;;;;0.40;0.40;;;;;;;7.38;61.24;96647.75;4984819;28;20074;-61
2023/04/07 03:05:21;;;;;;;0.40;0.40;;;;;;;7.38;59.17;96652.47;4984642;28;20088;-59
2023/04/07 03:07:47;;;;;;;0.30;0.30;;;;;;;7.05;59.30;96600.53;4984391;28;20540;-60
2023/04/07 03:10:14;;;;;;;0.40;0.40;;;;;;;7.34;59.37;96646.88;4982644;28;20054;-60
2023/04/07 03:12:42;;;;;;;0.32;0.32;;;;;;;7.27;59.59;96657.72;4984885;28;20062;-60
2023/04/07 03:15:09;;;;;;;0.40;0.40;;;;;;;7.38;60.01;96656.00;4984769;28;20165;-59
2023/04/07 03:17:35;;;;;;;0.40;0.40;;;;;;;7.21;59.20;96642.63;4983333;28;20145;-60
2023/04/07 03:20:02;;;;;;;0.40;0.40;;;;;;;7.32;58.79;96648.38;4984686;28;20054;-60
2023/04/07 03:22:29;;;;;;;0.35;0.35;;;;;;;7.29;58.59;96652.66;4983150;28;20050;-60
2023/04/07 03:24:56;;;;;;;0.30;0.30;;;;;;;7.17;59.21;96658.28;4985027;28;20121;-58
2023/04/07 03:27:22;;;;;;;0.40;0.40;;;;;;;7.27;59.38;96668.72;4984380;28;20046;-59
2023/04/07 03:29:50;;;;;;;0.45;0.45;;;;;;;7.25;59.21;96682.09;4984651;28;20109;-58
2023/04/07 03:32:16;;;;;;;0.30;0.30;;;;;;;7.00;60.56;96664.13;4984812;28;20559;-59
2023/04/07 03:34:43;;;;;;;0.40;0.40;;;;;;;6.61;60.71;96621.09;4984258;28;20190;-59
2023/04/07 03:37:09;;;;;;;0.40;0.40;;;;;;;6.87;61.17;96668.16;4984625;28;20592;-59
2023/04/07 03:39:36;;;;;;;0.32;0.32;;;;;;;6.93;61.66;96674.19;4984388;28;20133;-60
2023/04/07 03:42:03;;;;;;;0.40;0.40;;;;;;;6.53;62.38;96637.81;4975246;28;20588;-59
2023/04/07 03:44:29;;;;;;;0.40;0.40;;;;;;;6.63;65.16;96682.09;4965144;28;20062;-60
2023/04/07 03:46:57;;;;;;;0.30;0.30;;;;;;;6.58;65.87;96696.09;4965134;28;20157;-59
2023/04/07 03:49:23;;;;;;;0.30;0.30;;;;;;;6.34;66.32;96696.22;4965113;28;20051;-59
2023/04/07 03:51:50;;;;;;;0.32;0.32;;;;;;;6.21;67.19;96702.97;4965420;28;20498;-59
2023/04/07 03:54:16;;;;;;;0.40;0.40;;;;;;;5.97;68.51;96697.53;4964638;28;20066;-59
2023/04/07 03:56:43;;;;;;;0.30;0.30;;;;;;;5.94;68.83;96698.25;4964829;28;20086;-58
2023/04/07 03:59:10;;;;;;;0.30;0.30;;;;;;;5.80;68.90;96706.06;4979422;28;20087;-59
2023/04/07 04:01:37;;;;;;;0.30;0.30;;;;;;;5.57;68.67;96688.47;4964978;28;20494;-59
2023/04/07 04:04:04;;;;;;;0.30;0.30;;;;;;;5.61;69.00;96711.38;4964664;28;20070;-59
2023/04/07 04:06:31;;;;;;;0.30;0.30;;;;;;;5.63;68.96;96709.03;4979567;28;20113;-59
2023/04/07 04:08:57;;;;;;;0.30;0.30;;;;;;;5.54;69.19;96719.38;4964836;28;20542;-60
2023/04/07 04:11:24;;;;;;;0.30;0.30;;;;;;;5.23;70.46;96722.72;4964996;28;20435;-59
2023/04/07 04:13:50;;;;;;;0.30;0.30;;;;;;;5.24;70.34;96729.00;4964536;28;20128;-59
2023/04/07 04:16:17;;;;;;;0.30;0.30;;;;;;;5.22;71.10;96725.78;4979328;28;20062;-59
2023/04/07 04:18:44;;;;;;;0.30;0.30;;;;;;;5.19;70.84;96721.00;4978256;28;20046;-60
2023/04/07 04:21:10;;;;;;;0.30;0.30;;;;;;;5.17;70.75;96734.28;4982772;28;20133;-59
2023/04/07 04:23:37;;;;;;;0.30;0.30;;;;;;;5.04;71.00;96735.41;4986143;28;20194;-60
2023/04/07 04:26:04;;;;;;;0.30;0.30;;;;;;;4.92;71.64;96738.94;4986654;28;20476;-60
2023/04/07 04:28:30;;;;;;;0.30;0.30;;;;;;;4.90;71.18;96729.47;4986221;28;20058;-60
2023/04/07 04:30:57;;;;;;;0.30;0.30;;;;;;;4.41;70.82;96619.69;4985992;28;20128;-59
2023/04/07 04:33:24;;;;;;;0.30;0.30;;;;;;;4.88;70.41;96698.81;4985959;28;20475;-60
2023/04/07 04:35:51;;;;;;;0.30;0.30;;;;;;;5.16;71.15;96743.66;4986886;28;20047;-60
2023/04/07 04:38:18;;;;;;;0.30;0.30;;;;;;;5.14;70.25;96729.47;4987519;28;20054;-59
2023/04/07 04:40:44;;;;;;;0.30;0.30;;;;;;;4.69;69.21;96653.53;4987282;28;20232;-60
2023/04/07 04:43:11;;;;;;;0.30;0.30;;;;;;;4.28;70.17;96601.59;4987491;28;20662;-59
2023/04/07 04:45:37;;;;;;;0.30;0.30;;;;;;;5.29;69.80;96751.56;4987502;28;20054;-60
2023/04/07 04:48:05;;;;;;;0.30;0.30;;;;;;;5.46;68.95;96767.00;4987571;28;20368;-59
2023/04/07 04:50:31;;;;;;;0.30;0.30;;;;;;;5.46;67.79;96758.75;4986919;28;20058;-60
2023/04/07 04:52:58;;;;;;;0.30;0.30;;;;;;;5.44;66.94;96761.84;4983778;28;20453;-60
2023/04/07 04:55:25;;;;;;;0.30;0.30;;;;;;;5.42;66.32;96746.88;4966873;28;20074;-60
2023/04/07 04:57:51;;;;;;;0.30;0.30;;;;;;;5.68;65.42;96770.06;4965146;28;20426;-59
2023/04/07 05:00:18;;;;;;;0.30;0.30;;;;;;;5.78;65.28;96755.06;4965662;28;20050;-60
2023/04/07 05:02:45;;;;;;;0.30;0.30;;;;;;;5.84;64.24;96761.94;4964709;28;20055;-60
2023/04/07 05:05:12;;;;;;;0.30;0.30;;;;;;;5.63;64.42;96736.53;4965725;28;20050;-61
2023/04/07 05:07:39;;;;;;;0.40;0.40;;;;;;;5.53;64.68;96709.53;4966079;28;20066;-61
2023/04/07 05:10:07;;;;;;;0.30;0.30;;;;;;;6.10;63.58;96774.13;4965558;28;20445;-59
2023/04/07 05:12:34;;;;;;;0.32;0.32;;;;;;;6.22;62.20;96770.53;4967665;28;20046;-60
2023/04/07 05:15:01;;;;;;;0.40;0.40;;;;;;;6.42;61.35;96779.78;4965894;28;20142;-62
2023/04/07 05:17:27;;;;;;;0.30;0.30;;;;;;;5.93;61.14;96674.63;4967521;28;20089;-61
2023/04/07 05:19:54;;;;;;;0.40;0.40;;;;;;;6.11;62.69;96689.69;4966966;28;20497;-61
2023/04/07 05:22:21;;;;;;;0.30;0.30;;;;;;;6.78;60.87;96791.38;4967411;28;20487;-60
2023/04/07 05:24:48;;;;;;;0.30;0.30;;;;;;;6.52;59.43;96697.53;4981843;28;20062;-62
2023/04/07 05:27:14;;;;;;;0.32;0.32;;;;;;;7.18;59.34;96780.25;4967712;28;20046;-60
2023/04/07 05:29:41;;;;;;;0.40;0.40;;;;;;;7.25;58.66;96778.50;4967422;28;20050;-60
2023/04/07 05:32:08;;;;;;;0.40;0.40;;;;;;;7.38;58.21;96779.97;4967192;28;20053;-60
2023/04/07 05:34:34;;;;;;;0.40;0.40;;;;;;;7.55;57.22;96773.31;4966597;28;20141;-60
2023/04/07 05:37:01;;;;;;;0.40;0.40;;;;;;;7.56;56.26;96781.22;4967271;28;20199;-60
2023/04/07 05:39:28;;;;;;;0.40;0.40;;;;;;;7.66;56.49;96780.69;4967039;28;20121;-60
2023/04/07 05:41:56;;;;;;;0.40;0.40;;;;;;;7.58;56.01;96773.41;4967245;28;20113;-61
2023/04/07 05:44:23;;;;;;;0.40;0.40;;;;;;;7.79;56.43;96772.31;4959717;28;20051;-61
2023/04/07 05:46:50;;;;;;;0.40;0.40;;;;;;;7.70;56.20;96781.56;4947639;28;20114;-59
2023/04/07 05:49:17;;;;;;;0.40;0.40;;;;;;;7.80;55.88;96773.91;4947433;28;20055;-59
2023/04/07 05:51:46;;;;;;;0.40;0.40;;;;;;;7.43;56.19;96749.41;4945966;28;20178;-60
2023/04/07 05:54:15;;;;;;;0.40;0.40;;;;;;;7.36;56.23;96709.88;4946492;28;20063;-60
2023/04/07 05:56:42;;;;;;;0.40;0.40;;;;;;;7.90;56.66;96790.69;4946053;29;20051;-60
2023/04/07 05:59:09;;;;;;;0.40;0.40;;;;;;;7.80;56.42;96746.31;4949711;28;20050;-65
2023/04/07 06:01:36;;;;;;;0.40;0.40;;;;;;;7.43;56.12;96716.34;4955894;28;20050;-62
2023/04/07 06:04:03;;;;;;;0.43;0.43;;;;;;;8.09;55.32;96792.69;4965122;28;20510;-59
2023/04/07 06:06:30;;;;;;;0.40;0.40;;;;;;;8.28;54.60;96784.47;4964402;28;20054;-62
2023/04/07 06:08:56;;;;;;;0.40;0.40;;;;;;;8.40;56.22;96767.78;4964439;28;20061;-60
2023/04/07 06:11:25;;;;;;;0.40;0.40;;;;;;;8.28;54.85;96754.13;4966406;28;20714;-59
2023/04/07 06:13:51;;;;;;;0.40;0.40;;;;;;;8.61;55.07;96776.50;4966245;28;20054;-61
2023/04/07 06:16:18;;;;;;;0.40;0.40;;;;;;;8.40;52.50;96709.81;4966310;28;20165;-61
2023/04/07 06:18:45;;;;;;;0.50;0.50;;;;;;;8.62;52.69;96722.88;4966202;28;20057;-59
2023/04/07 06:21:12;;;;;;;0.50;0.50;;;;;;;9.08;51.38;96786.09;4967343;28;20050;-60
2023/04/07 06:23:38;;;;;;;0.50;0.50;;;;;;;8.96;51.00;96777.19;4959979;28;20337;-69
2023/04/07 06:26:09;;;;;;;0.40;0.40;;;;;;;8.68;51.19;96737.97;4946744;28;20146;-59
2023/04/07 06:28:35;;;;;;;0.40;0.40;;;;;;;8.58;51.04;96738.59;4949643;28;20130;-62
2023/04/07 06:31:02;;;;;;;0.43;0.43;;;;;;;9.04;51.45;96778.91;4948017;28;20841;-65
2023/04/07 06:33:29;;;;;;;0.40;0.40;;;;;;;9.21;51.40;96795.03;4946461;28;20176;-61
2023/04/07 06:35:56;;;;;;;0.40;0.40;;;;;;;9.08;51.66;96797.16;4946522;28;20055;-61
2023/04/07 06:38:23;;;;;;;0.40;0.40;;;;;;;9.15;52.56;96797.28;4947842;28;20051;-62
2023/04/07 06:40:50;;;;;;;0.50;0.50;;;;;;;9.24;52.63;96783.22;4945855;28;20117;-63
2023/04/07 06:43:17;;;;;;;0.40;0.40;;;;;;;9.37;52.03;96798.47;4948870;28;20524;-62
2023/04/07 06:45:44;;;;;;;0.40;0.40;;;;;;;9.56;51.11;96801.16;4944328;28;20079;-64
2023/04/07 06:48:11;;;;;;;0.40;0.40;;;;;;;8.72;50.29;96642.22;4956921;28;20050;-62
2023/04/07 06:50:37;;;;;;;0.40;0.40;;;;;;;9.75;49.15;96803.84;4957461;28;20050;-59
2023/04/07 06:53:04;;;;;;;0.43;0.43;;;;;;;9.75;49.17;96803.84;4964292;28;20050;-61
2023/04/07 06:55:31;;;;;;;0.50;0.50;;;;;;;9.87;49.06;96811.13;4962523;28;20047;-65
2023/04/07 06:57:58;;;;;;;0.50;0.50;;;;;;;9.42;48.92;96723.50;4963643;28;20121;-59
2023/04/07 07:00:25;;;;;;;0.40;0.40;;;;;;;9.89;49.19;96765.34;4958819;28;20653;-61
2023/04/07 07:02:52;;;;;;;0.50;0.50;;;;;;;9.75;47.87;96720.88;4952254;28;20058;-58
2023/04/07 07:05:22;;;;;;;0.50;0.50;;;;;;;10.73;48.56;96810.81;4945183;28;20043;-59
2023/04/07 07:07:50;;;;;;;0.40;0.40;;;;;;;10.79;47.13;96813.25;4949078;28;20121;-59
2023/04/07 07:10:17;;;;;;;0.50;0.50;;;;;;;10.71;47.49;96756.97;4948246;28;20065;-60
2023/04/07 07:12:43;;;;;;;0.40;0.40;;;;;;;11.41;46.74;96813.16;4952098;28;20090;-59
2023/04/07 07:15:10;;;;;;;0.40;0.40;;;;;;;11.36;46.85;96805.22;4945124;28;20058;-60
2023/04/07 07:17:37;;;;;;;0.50;0.50;;;;;;;11.71;45.49;96811.09;4945185;29;20098;-63
2023/04/07 07:20:04;;;;;;;0.50;0.50;;;;;;;11.37;45.48;96728.34;4943933;28;20047;-66
2023/04/07 07:22:31;;;;;;;0.50;0.50;;;;;;;11.84;44.89;96817.16;4954277;28;20058;-60
2023/04/07 07:24:58;;;;;;;0.50;0.50;;;;;;;11.97;45.60;96818.47;4951608;28;20051;-61
2023/04/07 07:27:24;;;;;;;0.60;0.60;;;;;;;11.87;44.99;96808.09;4948264;28;20216;-64
2023/04/07 07:29:51;;;;;;;0.50;0.50;;;;;;;10.96;45.37;96726.78;4944131;29;20086;-67
2023/04/07 07:32:17;;;;;;;0.50;0.50;;;;;;;11.68;46.05;96816.66;4945574;28;20441;-61
2023/04/07 07:34:44;;;;;;;0.55;0.55;;;;;;;11.84;46.03;96825.47;4945264;29;20607;-60
2023/04/07 07:37:11;;;;;;;0.50;0.50;;;;;;;11.73;45.05;96825.41;4952834;28;20058;-61
2023/04/07 07:39:38;;;;;;;0.50;0.50;;;;;;;11.74;45.57;96799.28;4959772;28;20577;-61
2023/04/07 07:42:04;;;;;;;0.50;0.50;;;;;;;11.97;44.80;96829.56;4947187;28;20047;-59
2023/04/07 07:44:31;;;;;;;0.50;0.50;;;;;;;11.77;45.01;96823.47;4949920;28;20055;-61
2023/04/07 07:46:58;;;;;;;0.50;0.50;;;;;;;11.59;43.58;96824.44;4963088;28;20054;-62
2023/04/07 07:49:24;;;;;;;0.50;0.50;;;;;;;11.22;44.41;96820.91;4955008;28;20126;-58
2023/04/07 07:51:51;;;;;;;0.52;0.52;;;;;;;10.43;47.82;96806.47;4944049;29;20055;-60
2023/04/07 07:54:18;;;;;;;0.50;0.50;;;;;;;10.53;48.14;96817.69;4947595;28;20518;-59
2023/04/07 07:56:45;;;;;;;0.50;0.50;;;;;;;9.64;49.34;96824.97;4954182;28;20054;-60
2023/04/07 07:59:11;;;;;;;0.40;0.40;;;;;;;7.14;50.78;96526.81;4967716;28;20125;-64
2023/04/07 08:01:38;;;;;;;0.50;0.50;;;;;;;8.91;50.60;96686.34;4963376;28;20054;-59
2023/04/07 08:04:05;;;;;;;0.40;0.40;;;;;;;9.54;49.61;96797.97;4955879;28;20142;-61
2023/04/07 08:06:32;;;;;;;0.50;0.50;;;;;;;9.74;48.49;96818.84;4953314;28;20047;-58
2023/04/07 08:08:59;;;;;;;0.50;0.50;;;;;;;9.97;47.26;96778.13;4968192;28;20082;-61
2023/04/07 08:11:25;;;;;;;0.50;0.50;;;;;;;10.56;44.47;96810.59;4960349;28;20090;-59
2023/04/07 08:13:52;;;;;;;0.50;0.50;;;;;;;10.38;44.00;96757.78;4967911;28;20069;-60
2023/04/07 08:16:20;;;;;;;0.50;0.50;;;;;;;10.88;44.67;96794.38;4954554;28;20949;-60
2023/04/07 08:18:47;;;;;;;0.50;0.50;;;;;;;11.08;43.52;96734.81;4966913;28;20137;-62
2023/04/07 08:21:14;;;;;;;0.50;0.50;;;;;;;11.71;41.85;96821.44;4962227;28;20047;-57
2023/04/07 08:23:41;;;;;;;0.50;0.50;;;;;;;10.86;43.77;96803.06;4954052;28;20114;-62
2023/04/07 08:26:08;;;;;;;0.50;0.50;;;;;;;9.37;45.67;96826.09;4949969;28;20064;-62
2023/04/07 08:28:35;;;;;;;0.50;0.50;;;;;;;10.19;45.57;96766.22;4948346;29;20239;-60
2023/04/07 08:31:01;;;;;;;0.50;0.50;;;;;;;11.15;44.42;96813.31;4946804;29;20047;-57
2023/04/07 08:33:28;;;;;;;0.50;0.50;;;;;;;11.77;43.02;96814.34;4963418;28;20174;-58
2023/04/07 08:35:55;;;;;;;0.50;0.50;;;;;;;12.04;41.52;96815.75;4958357;28;20585;-60
2023/04/07 08:38:22;;;;;;;0.50;0.50;;;;;;;12.10;42.45;96801.13;4971261;28;20057;-57
2023/04/07 08:41:22;;;;;;;0.50;0.50;;;;;;;12.66;41.27;96811.75;4960712;28;20058;-58
2023/04/07 08:43:51;;;;;;;0.50;0.50;;;;;;;12.87;40.24;96800.75;4971332;28;20062;-65
2023/04/07 08:46:22;;;;;;;0.60;0.60;;;;;;;12.66;42.05;96763.75;4966239;28;20059;-65
2023/04/07 08:48:51;;;;;;;0.60;0.60;;;;;;;10.50;42.84;96513.84;4961099;28;20535;-58
2023/04/07 08:51:30;;;;;;;0.60;0.60;;;;;;;12.50;44.15;96802.97;4960261;28;20078;-64
2023/04/07 08:54:05;;;;;;;0.60;0.60;;;;;;;12.72;42.58;96763.00;4959042;28;20051;-63
2023/04/07 08:56:33;;;;;;;0.50;0.50;;;;;;;13.31;40.80;96804.09;4947730;29;20070;-59
2023/04/07 08:59:05;;;;;;;0.57;0.57;;;;;;;12.47;41.68;96773.16;4954167;28;20074;-57
2023/04/07 09:01:34;;;;;;;0.50;0.50;;;;;;;11.81;42.31;96804.06;4967270;28;20057;-59
2023/04/07 09:04:03;;;;;;;0.50;0.50;;;;;;;11.41;44.23;96806.84;4963882;28;20199;-61
2023/04/07 09:06:30;;;;;;;0.50;0.50;;;;;;;11.01;44.96;96754.13;4948523;28;20109;-58
2023/04/07 09:08:58;;;;;;;0.50;0.50;;;;;;;11.95;44.35;96810.53;4945577;28;20510;-63
2023/04/07 09:11:28;;;;;;;0.50;0.50;;;;;;;10.52;44.66;96705.34;4948291;28;20732;-58
2023/04/07 09:13:55;;;;;;;0.50;0.50;;;;;;;11.78;43.99;96810.38;4950152;28;20514;-60
2023/04/07 09:16:25;;;;;;;0.60;0.60;;;;;;;11.59;43.86;96730.13;4958698;28;20073;-60
2023/04/07 09:18:52;;;;;;;0.50;0.50;;;;;;;12.69;42.85;96796.31;4946854;28;20137;-60
2023/04/07 09:21:19;;;;;;;0.52;0.52;;;;;;;11.96;42.31;96672.53;4976366;28;20153;-62
2023/04/07 09:23:46;;;;;;;0.60;0.60;;;;;;;12.33;41.70;96800.88;4972401;28;20057;-59
2023/04/07 09:26:16;;;;;;;0.55;0.55;;;;;;;12.87;41.77;96794.38;4955557;28;20106;-65
2023/04/07 09:28:45;;;;;;;0.50;0.50;;;;;;;13.43;41.18;96787.06;4946838;28;20651;-63
2023/04/07 09:31:12;;;;;;;0.50;0.50;;;;;;;13.32;41.07;96743.72;4954406;28;20131;-58
2023/04/07 09:33:39;;;;;;;0.60;0.60;;;;;;;13.87;41.36;96785.88;4954095;28;20055;-58
2023/04/07 09:36:06;;;;;;;0.60;0.60;;;;;;;13.73;40.25;96781.13;4946254;28;20047;-61
2023/04/07 09:38:39;;;;;;;0.55;0.55;;;;;;;13.57;41.30;96773.16;4947087;28;20434;-66
2023/04/07 09:41:09;;;;;;;0.60;0.60;;;;;;;12.47;41.57;96791.84;4954873;28;20051;-61
2023/04/07 09:43:44;;;;;;;0.60;0.60;;;;;;;12.38;42.85;96800.50;4950872;28;20462;-58
2023/04/07 09:46:15;;;;;;;0.60;0.60;;;;;;;12.40;42.87;96789.00;4957498;28;20062;-57
2023/04/07 09:48:44;;;;;;;0.50;0.50;;;;;;;12.87;42.92;96788.81;4951851;28;20085;-63
2023/04/07 09:51:16;;;;;;;0.50;0.50;;;;;;;12.70;42.56;96789.56;4949252;28;20980;-58
2023/04/07 09:53:51;;;;;;;0.50;0.50;;;;;;;11.74;44.75;96798.47;4947388;29;20109;-66
2023/04/07 09:56:21;;;;;;;0.50;0.50;;;;;;;11.69;44.00;96715.56;4945956;28;20254;-57
2023/04/07 09:58:50;;;;;;;0.50;0.50;;;;;;;12.46;44.68;96788.25;4946279;28;20051;-58
2023/04/07 10:01:18;;;;;;;0.60;0.60;;;;;;;11.99;45.18;96788.34;4945566;29;20050;-63
2023/04/07 10:03:45;;;;;;;0.50;0.50;;;;;;;12.64;45.62;96786.38;4956289;28;20051;-65
2023/04/07 10:06:13;;;;;;;0.60;0.60;;;;;;;11.89;46.87;96794.59;4951844;28;20043;-63
2023/04/07 10:08:42;;;;;;;0.50;0.50;;;;;;;12.07;45.96;96790.81;4946232;28;20043;-62
2023/04/07 10:11:09;;;;;;;0.57;0.57;;;;;;;12.01;45.41;96780.44;4948374;28;20130;-61
2023/04/07 10:13:38;;;;;;;0.50;0.50;;;;;;;12.18;46.40;96790.88;4962656;28;20502;-61
2023/04/07 10:16:06;;;;;;;0.50;0.50;;;;;;;12.15;45.27;96742.44;4962804;28;20141;-63
2023/04/07 10:18:34;;;;;;;0.50;0.50;;;;;;;12.92;44.90;96789.25;4963879;28;20054;-66
2023/04/07 10:21:05;;;;;;;0.70;0.70;;;;;;;12.81;44.26;96726.47;4965055;28;20603;-56
2023/04/07 10:23:50;;;;;;;0.60;0.60;;;;;;;13.38;43.44;96775.50;4963221;28;20066;-56
2023/04/07 10:26:22;;;;;;;0.60;0.60;;;;;;;13.47;42.74;96773.13;4964853;28;20655;-62
2023/04/07 10:28:54;;;;;;;0.60;0.60;;;;;;;12.76;43.60;96710.97;4954342;28;20059;-59
2023/04/07 10:31:22;;;;;;;0.60;0.60;;;;;;;12.00;44.35;96779.63;4946288;28;20059;-58
2023/04/07 10:33:50;;;;;;;0.45;0.45;;;;;;;11.42;45.23;96791.78;4948648;28;20175;-58
2023/04/07 10:36:19;;;;;;;0.50;0.50;;;;;;;12.37;44.16;96787.00;4965065;28;20159;-59
2023/04/07 10:39:08;;;;;;;0.60;0.60;;;;;;;12.96;43.49;96776.16;4966028;28;20059;-58
2023/04/07 10:41:35;;;;;;;0.50;0.50;;;;;;;12.81;43.06;96784.84;4966194;28;20046;-60
2023/04/07 10:44:07;;;;;;;0.50;0.50;;;;;;;13.72;42.80;96785.06;4948909;28;20062;-59
2023/04/07 10:46:48;;;;;;;0.60;0.60;;;;;;;14.41;39.09;96779.91;4946097;28;20047;-65
2023/04/07 10:49:16;;;;;;;0.60;0.60;;;;;;;14.32;39.36;96790.66;4963037;28;20061;-58
2023/04/07 10:52:10;;;;;;;0.60;0.60;;;;;;;12.79;38.98;96576.78;4955625;28;20051;-57
2023/04/07 10:54:37;;;;;;;0.57;0.57;;;;;;;13.53;40.55;96782.72;4945159;28;20059;-62
2023/04/07 10:57:13;;;;;;;0.60;0.60;;;;;;;13.78;41.43;96777.13;4945840;28;20051;-58
2023/04/07 10:59:45;;;;;;;0.52;0.52;;;;;;;12.49;43.00;96790.25;4949786;28;20050;-60
2023/04/07 11:02:12;;;;;;;0.60;0.60;;;;;;;12.26;43.99;96786.94;4947595;28;20043;-63
2023/04/07 11:04:41;;;;;;;0.50;0.50;;;;;;;12.04;43.78;96758.22;4951166;28;20063;-62
2023/04/07 11:07:09;;;;;;;0.50;0.50;;;;;;;11.78;43.38;96761.22;4976064;28;20529;-59
2023/04/07 11:09:36;;;;;;;0.50;0.50;;;;;;;11.62;43.77;96798.69;4962603;28;20094;-64
2023/04/07 11:12:03;;;;;;;0.50;0.50;;;;;;;11.45;44.34;96763.28;4953185;28;20619;-65
2023/04/07 11:14:32;;;;;;;0.50;0.50;;;;;;;11.51;44.21;96795.03;4953970;28;20409;-56
2023/04/07 11:17:00;;;;;;;0.50;0.50;;;;;;;11.90;43.62;96790.66;4961875;28;20165;-59
2023/04/07 11:19:27;;;;;;;0.50;0.50;;;;;;;12.12;44.12;96790.41;4961843;28;20050;-67
2023/04/07 11:22:16;;;;;;;0.50;0.50;;;;;;;12.82;42.80;96773.31;4963383;28;20097;-57
2023/04/07 11:24:55;;;;;;;0.50;0.50;;;;;;;12.54;42.81;96764.88;4963784;28;20050;-67
2023/04/07 11:27:22;;;;;;;0.50;0.50;;;;;;;12.16;42.48;96727.38;4963297;28;20341;-57
2023/04/07 11:29:49;;;;;;;0.50;0.50;;;;;;;12.68;42.45;96772.47;4964296;28;20054;-65
2023/04/07 11:32:23;;;;;;;0.50;0.50;;;;;;;13.19;41.39;96701.56;4959204;28;20075;-66
2023/04/07 11:34:51;;;;;;;0.60;0.60;;;;;;;13.17;38.87;96770.69;4954086;28;20547;-65
2023/04/07 11:37:24;;;;;;;0.60;0.60;;;;;;;13.07;38.85;96704.72;4957297;28;20126;-57
2023/04/07 11:39:55;;;;;;;0.70;0.70;;;;;;;13.79;36.37;96760.03;4949628;28;20098;-58
2023/04/07 11:42:31;;;;;;;0.55;0.55;;;;;;;13.65;37.08;96757.25;4949959;28;20051;-59
2023/04/07 11:44:57;;;;;;;0.60;0.60;;;;;;;14.47;36.67;96764.34;4948276;28;20142;-58